• Join FlightAware (Why Join?)
  • Login
  • US Flag 
10:25AM EDT


 

Airport Tracker/Info


-or-


 

Live Flight TrackerFlight Track Log ✈ DAL1103 ✈ 10-Sep-2013 ✈ CYYZ - KATL

Flight Track Log - Related Links

Times and Time Zones

All times are in EDT time to prevent confusion due to time zone crossing. See the DAL1103 flight status page for this flight to view local times or setup timezone preferences in your user account.

Time Position Orientation Groundspeed Altitude Reporting Facility
EDT Latitude Longitude Course Direction KTS MPH feet Rate Location/Type
07:44AM 43.6500 -79.6167 202° Southwest 70 81 2,300  Level Toronto Center
07:45AM 43.6000 -79.6500 206° Southwest 240 276 4,600 2,580 Climbing Toronto Center
07:46AM 43.5667 -79.7000 227° Southwest 260 299 6,500 3,360 Climbing Toronto Center
07:47AM 43.3471 -79.8139 185° South  Level Estimated
07:47AM 43.5000 -79.7500 209° Southwest 270 311 10,100  Level Toronto Center
07:48AM 43.2371 -79.8745 194° South  Level Estimated
07:48AM 43.4000 -79.7167 166° South 350 403 11,900  Level Toronto Center
07:49AM 43.1269 -79.9350 200° South  Level Estimated
07:49AM 43.2833 -79.7000 174° South 410 472 13,900  Level Toronto Center
07:50AM 43.0263 -79.9900 202° Southwest  Level Estimated
07:50AM 43.1667 -79.7167 186° South 430 495 16,800  Level Toronto Center
07:51AM 43.0500 -79.7500 192° South 440 506 19,400 2,340 Climbing Toronto Center
07:52AM 42.9167 -79.7667 185° South 460 529 21,500 1,800 Climbing Toronto Center
07:53AM 42.7833 -79.8167 195° South 470 541 23,000 1,440 Climbing Toronto Center
07:54AM 42.6500 -79.8333 185° South 480 552 24,400 1,800 Climbing Toronto Center
07:55AM 42.5167 -79.8667 190° South 480 552 26,600 1,260 Climbing Toronto Center
07:56AM 42.4000 -79.8833 186° South 480 552 27,000 720 Climbing Toronto Center
07:57AM 42.2667 -79.9000 185° South 480 552 28,100 1,380 Climbing Toronto Center
07:58AM 42.1333 -79.9333 191° South 470 541 29,800 1,440 Climbing Toronto Center
07:59AM 42.0000 -79.9667 191° South 470 541 31,000 1,200 Climbing Toronto Center
08:00AM 41.8461 -80.0117 192° South 474 545 32,600 840 Climbing Cleveland Center
08:01AM 41.7231 -80.0350 188° South 456 525 33,000 180 Climbing Cleveland Center
08:02AM 41.6169 -80.0556 188° South 450 518 33,000  Level Cleveland Center
08:03AM 41.4942 -80.0814 189° South 445 512 33,100 480 Climbing Cleveland Center
08:04AM 41.3753 -80.1072 189° South 445 512 34,000 420 Climbing Cleveland Center
08:05AM 41.2525 -80.1303 188° South 445 512 34,000 300 Level Cleveland Center
08:06AM 41.1317 -80.1531 188° South 445 512 34,600 840 Climbing Cleveland Center
08:07AM 41.0086 -80.1758 188° South 445 512 35,700 660 Climbing Cleveland Center
08:08AM 40.8878 -80.2014 189° South 445 512 36,000 120 Climbing Cleveland Center
08:09AM 40.7628 -80.2350 192° South 451 519 36,000  Level Cleveland Center
08:10AM 40.6442 -80.2767 195° South 451 519 36,000  Level Cleveland Center
08:11AM 40.5256 -80.3181 195° South 446 513 36,000  Level Cleveland Center
08:12AM 40.4089 -80.3594 195° South 446 513 36,000  Level Cleveland Center
08:13AM 40.2775 -80.3981 193° South 441 507 36,000  Level Cleveland Center
08:14AM 40.1567 -80.4364 194° South 441 507 36,000  Level Cleveland Center
08:15AM 40.0400 -80.4747 194° South 441 507 36,000  Level Cleveland Center
08:17AM 39.8439 -80.5375 194° South 442 509 36,000  Level Indianapolis Center
08:18AM 39.7236 -80.5747 193° South 444 511 36,000  Level Indianapolis Center
08:19AM 39.6042 -80.6169 195° South 443 510 36,000  Level Indianapolis Center
08:20AM 39.4853 -80.6564 194° South 440 506 36,000  Level Indianapolis Center
08:21AM 39.3703 -80.7147 201° Southwest 441 507 36,000  Level Indianapolis Center
08:22AM 39.2567 -80.7714 201° Southwest 438 504 36,000  Level Indianapolis Center
08:23AM 39.1447 -80.8314 203° Southwest 435 501 36,000  Level Indianapolis Center
08:24AM 39.0339 -80.9511 220° Southwest 438 504 36,000  Level Indianapolis Center
08:25AM 38.9467 -81.0567 223° Southwest 432 497 36,000  Level Indianapolis Center
08:26AM 38.8600 -81.1647 224° Southwest 432 497 36,000  Level Indianapolis Center
08:27AM 38.7714 -81.2708 223° Southwest 433 498 36,000  Level Indianapolis Center
08:28AM 38.6836 -81.3764 223° Southwest 433 498 36,000  Level Indianapolis Center
08:29AM 38.5958 -81.4817 223° Southwest 433 498 36,000  Level Indianapolis Center
08:30AM 38.5008 -81.5961 223° Southwest 435 501 36,000  Level Indianapolis Center
08:31AM 38.4128 -81.7017 223° Southwest 432 497 36,000  Level Indianapolis Center
08:32AM 38.3156 -81.7925 216° Southwest 432 497 36,000  Level Indianapolis Center
08:33AM 38.2011 -81.8397 198° South 435 501 36,000  Level Indianapolis Center
08:34AM 38.0844 -81.8850 197° South 433 498 36,000  Level Indianapolis Center
08:35AM 37.9481 -81.9433 199° South 435 501 36,000  Level Indianapolis Center
08:36AM 37.8322 -81.9925 199° South 437 503 36,000  Level Indianapolis Center
08:37AM 37.7092 -82.0461 199° South 439 505 36,000  Level Indianapolis Center
08:38AM 37.5922 -82.0958 199° South 441 507 36,000  Level Indianapolis Center
08:39AM 37.4747 -82.1458 199° South 443 510 36,000  Level Indianapolis Center
08:40AM 37.3581 -82.1972 199° South 443 510 36,000  Level Indianapolis Center
08:41AM 37.2419 -82.2481 199° South 440 506 36,000  Level Indianapolis Center
08:42AM 37.1233 -82.2981 199° South 445 512 36,000  Level Indianapolis Center
08:44AM 37.0058 -82.3478 199° South 443 510 36,000  Level Indianapolis Center
08:45AM 36.8683 -82.4064 199° South 443 510 36,000  Level Indianapolis Center
08:46AM 36.7486 -82.4564 199° South 447 514 36,000  Level Indianapolis Center
08:47AM 36.6297 -82.5064 199° South 446 513 36,000  Level Indianapolis Center
08:47AM 36.5228 -82.5508 198° South 448 516 36,000  Level Atlanta Center
08:48AM 36.4022 -82.5994 198° South 448 516 36,000  Level Atlanta Center
08:49AM 36.2839 -82.6506 199° South 448 516 36,000 -120 Level Atlanta Center
08:50AM 36.1678 -82.6986 198° South 448 516 35,800 -540 Descending Atlanta Center
08:51AM 36.0494 -82.7494 199° South 448 516 35,000 -420 Descending Atlanta Center
08:52AM 35.9269 -82.7975 198° South 453 521 35,000  Level Atlanta Center
08:53AM 35.8064 -82.8456 198° South 459 528 35,000  Level Atlanta Center
08:54AM 35.6878 -82.8958 199° South 459 528 35,000 -420 Level Atlanta Center
08:55AM 35.5717 -82.9614 205° Southwest 459 528 34,200 -1,320 Descending Atlanta Center
08:56AM 35.4556 -83.0342 207° Southwest 465 535 32,400 -1,920 Descending Atlanta Center
08:57AM 35.3392 -83.1019 205° Southwest 465 535 30,400 -2,280 Descending Atlanta Center
08:58AM 35.2186 -83.1744 206° Southwest 472 543 27,900 -2,100 Descending Atlanta Center
08:59AM 35.1106 -83.2442 208° Southwest 472 543 26,300 -1,260 Descending Atlanta Center
09:00AM 34.9983 -83.3061 204° Southwest 472 543 25,400 -900 Descending Atlanta Center
09:01AM 34.8861 -83.3753 207° Southwest 459 528 24,600 -1,140 Descending Atlanta Center
09:02AM 34.7778 -83.4394 206° Southwest 448 516 23,200 -1,260 Descending Atlanta Center
09:03AM 34.6758 -83.5008 206° Southwest 429 494 22,100 -1,500 Descending Atlanta Center
09:04AM 34.5633 -83.5619 204° Southwest 408 470 20,300 -1,620 Descending Atlanta Center
09:05AM 34.4636 -83.6206 206° Southwest 403 464 18,900 -1,800 Descending Atlanta Center
09:06AM 34.3719 -83.6764 207° Southwest 393 452 16,800 -2,280 Descending Atlanta Center
09:07AM 34.2761 -83.7322 206° Southwest 376 433 14,400 -1,440 Descending Atlanta Center
09:08AM 34.1967 -83.7800 206° Southwest 370 426 14,000 -240 Descending Atlanta Center
09:09AM 34.1092 -83.8306 206° Southwest 362 417 14,000 -60 Level Atlanta Center
09:10AM 34.0281 -83.9058 218° Southwest 357 411 13,900 -480 Descending Atlanta Center
09:11AM 33.9500 -83.9833 219° Southwest 365 420 13,100 -900 Descending Atlanta TRACON
09:12AM 33.8667 -84.0500 214° Southwest 362 417 12,200 -660 Descending Atlanta TRACON
09:13AM 33.7833 -84.1000 207° Southwest 356 410 12,000 -120 Descending Atlanta TRACON
09:14AM 33.7333 -84.1667 228° Southwest 359 413 12,000  Level Atlanta TRACON
09:15AM 33.7333 -84.2833 270° West 311 358 12,000 -420 Level Atlanta TRACON
09:16AM 33.7333 -84.3667 270° West 312 359 11,200 -1,380 Descending Atlanta TRACON
09:17AM 33.7333 -84.4667 270° West 304 350 9,400 -1,740 Descending Atlanta TRACON
09:18AM 33.7333 -84.5667 270° West 288 331 7,800 -1,680 Descending Atlanta TRACON
09:19AM 33.7333 -84.6500 270° West 286 329 6,300 -1,680 Descending Atlanta TRACON
09:20AM 33.7333 -84.7500 270° West 280 322 4,700 -1,200 Descending Atlanta TRACON
09:21AM 33.7000 -84.8167 239° Southwest 267 307 4,000 -360 Descending Atlanta TRACON
09:22AM 33.6500 -84.7833 151° Southeast 225 259 4,000  Level Atlanta TRACON
09:23AM 33.6500 -84.7000 90° East 220 253 4,000  Level Atlanta TRACON
09:24AM 33.6500 -84.6333 90° East 213 245 4,100 -480 Climbing Atlanta TRACON
09:25AM 33.6500 -84.5667 90° East 185 213 3,200 -1,020 Descending Atlanta TRACON
09:26AM 33.6500 -84.5167 90° East 175 201 2,200 -900 Descending Atlanta TRACON
09:27AM 33.6500 -84.4667 90° East 132 152 1,500 -720 Descending Atlanta TRACON